createdAt,value
2023-11-24T00:00:15.198Z,96396.00
2023-11-24T00:02:16.752Z,96398.13
2023-11-24T00:04:18.301Z,96401.31
2023-11-24T00:06:21.133Z,96397.94
2023-11-24T00:08:22.614Z,96394.25
2023-11-24T00:10:23.958Z,96390.75
2023-11-24T00:12:26.356Z,96377.94
2023-11-24T00:14:27.764Z,96369.00
2023-11-24T00:16:29.709Z,96372.19
2023-11-24T00:18:31.621Z,96364.72
2023-11-24T00:20:32.990Z,96370.91
2023-11-24T00:22:34.321Z,96377.09
2023-11-24T00:24:37.241Z,96364.47
2023-11-24T00:26:38.580Z,96386.44
2023-11-24T00:28:40.832Z,96374.22
2023-11-24T00:30:42.270Z,96380.91
2023-11-24T00:32:46.201Z,96351.94
2023-11-24T00:34:48.346Z,96360.25
2023-11-24T00:36:49.817Z,96373.59
2023-11-24T00:38:51.590Z,96374.13
2023-11-24T00:40:52.972Z,96386.47
2023-11-24T00:42:55.338Z,96378.78
2023-11-24T00:44:56.706Z,96375.94
2023-11-24T00:46:58.066Z,96387.34
2023-11-24T00:48:59.564Z,96383.03
2023-11-24T00:51:00.999Z,96379.09
2023-11-24T00:53:02.448Z,96400.97
2023-11-24T00:55:04.207Z,96406.75
2023-11-24T00:57:06.385Z,96394.94
2023-11-24T00:59:07.727Z,96414.28
2023-11-24T01:01:10.529Z,96390.13
2023-11-24T01:03:11.988Z,96400.31
2023-11-24T01:05:13.310Z,96397.53
2023-11-24T01:07:14.667Z,96420.91
2023-11-24T01:09:16.886Z,96417.03
2023-11-24T01:11:18.224Z,96389.00
2023-11-24T01:13:19.604Z,96386.13
2023-11-24T01:15:20.955Z,96376.00
2023-11-24T01:17:22.369Z,96394.03
2023-11-24T01:19:24.949Z,96386.66
2023-11-24T01:21:26.741Z,96374.16
2023-11-24T01:23:28.371Z,96359.88
2023-11-24T01:25:29.751Z,96372.94
2023-11-24T01:27:31.802Z,96367.03
2023-11-24T01:29:33.293Z,96367.66
2023-11-24T01:31:34.664Z,96352.72
2023-11-24T01:33:36.040Z,96355.16
2023-11-24T01:35:37.521Z,96345.00
2023-11-24T01:37:38.839Z,96350.25
2023-11-24T01:39:40.264Z,96336.31
2023-11-24T01:41:41.633Z,96333.50
2023-11-24T01:43:42.954Z,96311.66
2023-11-24T01:45:45.722Z,96303.50
2023-11-24T01:47:48.375Z,96311.50
2023-11-24T01:49:50.922Z,96321.88
2023-11-24T01:51:52.293Z,96328.69
2023-11-24T01:53:53.630Z,96330.50
2023-11-24T01:55:55.021Z,96319.47
2023-11-24T01:57:56.412Z,96300.78
2023-11-24T01:59:57.809Z,96312.72
2023-11-24T02:02:00.457Z,96329.69
2023-11-24T02:04:01.888Z,96333.91
2023-11-24T02:06:03.433Z,96342.41
2023-11-24T02:08:05.192Z,96350.91
2023-11-24T02:10:07.373Z,96339.75
2023-11-24T02:12:08.762Z,96338.91
2023-11-24T02:14:10.109Z,96318.31
2023-11-24T02:16:11.522Z,96317.44
2023-11-24T02:18:13.556Z,96321.66
2023-11-24T02:20:15.259Z,96319.88
2023-11-24T02:22:16.804Z,96320.00
2023-11-24T02:24:18.146Z,96314.03
2023-11-24T02:26:20.064Z,96303.81
2023-11-24T02:28:21.403Z,96306.38
2023-11-24T02:30:23.074Z,96320.13
2023-11-24T02:32:24.903Z,96312.41
2023-11-24T02:34:26.351Z,96334.59
2023-11-24T02:36:31.610Z,96332.09
2023-11-24T02:38:33.391Z,96337.34
2023-11-24T02:40:34.732Z,96329.69
2023-11-24T02:42:39.081Z,96355.84
2023-11-24T02:44:40.625Z,96354.50
2023-11-24T02:46:42.193Z,96354.66
2023-11-24T02:48:43.791Z,96364.28
2023-11-24T02:50:45.281Z,96348.28
2023-11-24T02:52:46.619Z,96350.03
2023-11-24T02:54:48.074Z,96351.00
2023-11-24T02:56:49.726Z,96353.72
2023-11-24T02:58:51.071Z,96349.50
2023-11-24T03:00:52.494Z,96353.78
2023-11-24T03:02:53.861Z,96354.00
2023-11-24T03:04:55.275Z,96349.13
2023-11-24T03:06:56.804Z,96346.78
2023-11-24T03:08:58.874Z,96362.25
2023-11-24T03:11:01.222Z,96351.31
2023-11-24T03:13:02.865Z,96351.31
2023-11-24T03:15:04.436Z,96341.09
2023-11-24T03:17:05.829Z,96336.91
2023-11-24T03:19:07.156Z,96347.13
2023-11-24T03:21:08.495Z,96339.28
2023-11-24T03:23:09.848Z,96340.56
2023-11-24T03:25:11.188Z,96341.16
2023-11-24T03:27:12.534Z,96346.88
2023-11-24T03:29:13.922Z,96349.34
2023-11-24T03:31:15.250Z,96344.09
2023-11-24T03:33:16.737Z,96349.88
2023-11-24T03:35:18.177Z,96340.16
2023-11-24T03:37:19.513Z,96337.34
2023-11-24T03:39:22.287Z,96340.69
2023-11-24T03:41:23.686Z,96330.47
2023-11-24T03:43:25.024Z,96331.09
2023-11-24T03:45:26.394Z,96320.09
2023-11-24T03:47:27.774Z,96308.88
2023-11-24T03:49:29.121Z,96313.88
2023-11-24T03:51:30.458Z,96317.28
2023-11-24T03:53:32.369Z,96320.72
2023-11-24T03:55:33.745Z,96313.88
2023-11-24T03:57:35.094Z,96320.88
2023-11-24T03:59:36.539Z,96314.88
2023-11-24T04:01:38.067Z,96314.97
2023-11-24T04:03:39.649Z,96311.50
2023-11-24T04:05:41.142Z,96293.69
2023-11-24T04:07:42.509Z,96314.28
2023-11-24T04:09:44.030Z,96281.91
2023-11-24T04:11:45.454Z,96293.09
2023-11-24T04:13:46.864Z,96294.00
2023-11-24T04:15:48.503Z,96300.00
2023-11-24T04:17:50.048Z,96291.69
2023-11-24T04:19:51.411Z,96307.25
2023-11-24T04:21:52.776Z,96303.25
2023-11-24T04:23:54.148Z,96306.91
2023-11-24T04:25:55.472Z,96298.50
2023-11-24T04:27:56.861Z,96306.31
2023-11-24T04:29:58.219Z,96311.63
2023-11-24T04:31:59.578Z,96321.19
2023-11-24T04:34:01.660Z,96315.50
2023-11-24T04:36:03.181Z,96321.59
2023-11-24T04:38:04.567Z,96321.59
2023-11-24T04:40:06.437Z,96312.41
2023-11-24T04:42:07.867Z,96319.31
2023-11-24T04:44:09.249Z,96315.09
2023-11-24T04:46:10.668Z,96303.09
2023-11-24T04:48:13.680Z,96298.81
2023-11-24T04:50:17.463Z,96292.72
2023-11-24T04:52:18.955Z,96298.34
2023-11-24T04:54:20.277Z,96293.94
2023-11-24T04:56:21.629Z,96302.25
2023-11-24T04:58:22.962Z,96297.72
2023-11-24T05:00:24.288Z,96282.09
2023-11-24T05:02:25.740Z,96277.72
2023-11-24T05:04:28.058Z,96278.34
2023-11-24T05:06:29.489Z,96271.47
2023-11-24T05:08:30.883Z,96265.47
2023-11-24T05:10:32.214Z,96268.69
2023-11-24T05:12:34.186Z,96270.34
2023-11-24T05:14:35.945Z,96270.13
2023-11-24T05:16:37.350Z,96264.03
2023-11-24T05:18:38.804Z,96270.69
2023-11-24T05:20:40.161Z,96272.25
2023-11-24T05:22:41.522Z,96276.44
2023-11-24T05:24:43.214Z,96270.19
2023-11-24T05:26:44.635Z,96259.16
2023-11-24T05:28:45.986Z,96240.44
2023-11-24T05:30:47.351Z,96248.19
2023-11-24T05:32:48.777Z,96251.72
2023-11-24T05:34:52.140Z,96245.88
2023-11-24T05:36:53.693Z,96247.75
2023-11-24T05:38:55.520Z,96248.00
2023-11-24T05:40:56.884Z,96251.56
2023-11-24T05:42:58.275Z,96257.56
2023-11-24T05:45:00.107Z,96252.53
2023-11-24T05:47:05.426Z,96245.78
2023-11-24T05:49:06.865Z,96233.16
2023-11-24T05:51:08.232Z,96223.75
2023-11-24T05:53:09.770Z,96224.69
2023-11-24T05:55:11.221Z,96222.28
2023-11-24T05:57:12.687Z,96214.63
2023-11-24T05:59:14.025Z,96210.41
2023-11-24T06:01:15.440Z,96207.28
2023-11-24T06:03:16.926Z,96223.59
2023-11-24T06:05:18.466Z,96201.59
2023-11-24T06:07:19.858Z,96200.84
2023-11-24T06:09:21.277Z,96200.09
2023-11-24T06:11:22.612Z,96208.72
2023-11-24T06:13:24.000Z,96202.00
2023-11-24T06:15:25.435Z,96203.63
2023-11-24T06:17:26.865Z,96195.91
2023-11-24T06:19:28.214Z,96196.78
2023-11-24T06:21:29.708Z,96190.63
2023-11-24T06:23:31.149Z,96181.88
2023-11-24T06:25:32.500Z,96212.28
2023-11-24T06:27:33.952Z,96211.16
2023-11-24T06:29:36.048Z,96211.72
2023-11-24T06:31:37.493Z,96048.00
2023-11-24T06:33:38.905Z,96194.19
2023-11-24T06:35:41.721Z,96204.16
2023-11-24T06:37:43.067Z,96205.00
2023-11-24T06:39:44.464Z,96204.91
2023-11-24T06:41:45.818Z,96211.75
2023-11-24T06:43:47.176Z,96218.50
2023-11-24T06:45:48.625Z,96233.00
2023-11-24T06:47:50.027Z,96222.63
2023-11-24T06:49:51.576Z,96228.56
2023-11-24T06:51:53.946Z,96233.69
2023-11-24T06:53:55.368Z,96221.63
2023-11-24T06:55:56.764Z,96223.38
2023-11-24T06:57:59.242Z,96216.63
2023-11-24T07:00:00.658Z,96223.38
2023-11-24T07:02:02.084Z,96217.50
2023-11-24T07:04:03.707Z,96226.16
2023-11-24T07:06:06.259Z,96219.44
2023-11-24T07:08:07.646Z,96222.97
2023-11-24T07:10:12.812Z,96222.22
2023-11-24T07:12:19.077Z,96221.47
2023-11-24T07:14:20.564Z,96219.81
2023-11-24T07:16:23.860Z,96213.22
2023-11-24T07:18:26.755Z,96223.59
2023-11-24T07:20:28.213Z,96246.69
2023-11-24T07:22:31.218Z,96217.09
2023-11-24T07:24:33.537Z,96227.06
2023-11-24T07:26:34.886Z,96220.22
2023-11-24T07:28:37.072Z,96218.66
2023-11-24T07:30:38.507Z,96224.59
2023-11-24T07:32:39.905Z,96215.38
2023-11-24T07:34:41.302Z,96216.25
2023-11-24T07:36:42.662Z,96206.13
2023-11-24T07:38:43.990Z,96202.84
2023-11-24T07:40:45.320Z,96192.63
2023-11-24T07:42:47.886Z,96197.72
2023-11-24T07:44:49.771Z,96201.75
2023-11-24T07:46:51.132Z,96196.00
2023-11-24T07:48:52.522Z,96192.84
2023-11-24T07:50:53.863Z,96204.56
2023-11-24T07:52:57.754Z,96201.03
2023-11-24T07:55:00.354Z,96207.97
2023-11-24T07:57:01.741Z,96209.69
2023-11-24T07:59:03.100Z,96221.22
2023-11-24T08:01:08.060Z,96218.06
2023-11-24T08:03:11.995Z,96217.34
2023-11-24T08:05:13.756Z,96219.06
2023-11-24T08:07:15.238Z,96216.50
2023-11-24T08:09:18.143Z,96211.41
2023-11-24T08:11:19.566Z,96214.84
2023-11-24T08:13:21.104Z,96202.00
2023-11-24T08:15:22.482Z,96218.91
2023-11-24T08:17:23.862Z,96223.91
2023-11-24T08:19:27.244Z,96218.91
2023-11-24T08:21:28.669Z,96240.38
2023-11-24T08:23:30.014Z,96230.50
2023-11-24T08:25:31.388Z,96221.94
2023-11-24T08:27:32.710Z,96227.97
2023-11-24T08:29:34.341Z,96232.28
2023-11-24T08:31:35.695Z,96226.44
2023-11-24T08:33:37.092Z,96232.44
2023-11-24T08:35:39.756Z,96227.53
2023-11-24T08:37:41.624Z,96236.97
2023-11-24T08:39:43.019Z,96237.97
2023-11-24T08:41:45.627Z,96232.94
2023-11-24T08:43:47.805Z,96240.66
2023-11-24T08:45:49.252Z,96232.22
2023-11-24T08:47:50.751Z,96239.19
2023-11-24T08:49:52.112Z,96250.28
2023-11-24T08:51:53.501Z,96221.47
2023-11-24T08:53:54.886Z,96200.31
2023-11-24T08:55:59.088Z,96195.34
2023-11-24T08:58:01.797Z,96194.53
2023-11-24T09:00:04.045Z,96197.16
2023-11-24T09:02:05.773Z,96199.78
2023-11-24T09:04:07.458Z,96202.44
2023-11-24T09:06:08.893Z,96197.22
2023-11-24T09:08:10.237Z,96208.25
2023-11-24T09:10:13.364Z,96205.81
2023-11-24T09:12:14.817Z,96216.03
2023-11-24T09:14:16.206Z,96217.66
2023-11-24T09:16:18.428Z,96223.50
2023-11-24T09:18:22.762Z,96229.44
2023-11-24T09:20:25.700Z,96228.59
2023-11-24T09:22:27.091Z,96225.16
2023-11-24T09:24:28.832Z,96215.78
2023-11-24T09:26:30.157Z,96211.50
2023-11-24T09:28:31.532Z,96202.84
2023-11-24T09:30:33.200Z,96199.31
2023-11-24T09:32:36.491Z,96198.41
2023-11-24T09:34:38.449Z,96202.59
2023-11-24T09:36:43.334Z,96185.56
2023-11-24T09:38:45.641Z,96201.47
2023-11-24T09:40:46.982Z,96195.47
2023-11-24T09:42:48.677Z,96170.66
2023-11-24T09:44:50.154Z,96162.19
2023-11-24T09:46:53.251Z,96163.75
2023-11-24T09:48:55.072Z,96160.22
2023-11-24T09:50:56.891Z,96151.72
2023-11-24T09:52:58.426Z,96151.66
2023-11-24T09:55:00.820Z,96140.50
2023-11-24T09:57:02.172Z,96137.16
2023-11-24T09:59:09.887Z,96137.16
2023-11-24T10:01:11.279Z,96121.84
2023-11-24T10:03:12.680Z,96115.81
2023-11-24T10:05:14.065Z,96122.63
2023-11-24T10:07:16.089Z,96112.34
2023-11-24T10:09:17.421Z,96121.84
2023-11-24T10:11:28.983Z,96110.84
2023-11-24T10:13:30.406Z,96110.84
2023-11-24T10:15:32.170Z,96110.94
2023-11-24T10:17:34.475Z,96102.56
2023-11-24T10:19:35.977Z,96111.09
2023-11-24T10:21:37.414Z,96106.91
2023-11-24T10:23:39.407Z,96107.00
2023-11-24T10:25:40.764Z,96096.94
2023-11-24T10:27:42.366Z,96092.66
2023-11-24T10:29:43.734Z,96086.81
2023-11-24T10:31:45.907Z,96082.69
2023-11-24T10:33:47.375Z,96081.03
2023-11-24T10:35:50.273Z,96092.16
2023-11-24T10:37:51.605Z,96083.75
2023-11-24T10:39:52.975Z,96088.84
2023-11-24T10:41:55.929Z,96090.56
2023-11-24T10:43:57.933Z,96073.19
2023-11-24T10:45:59.370Z,96072.25
2023-11-24T10:48:00.771Z,96084.16
2023-11-24T10:50:02.152Z,96079.06
2023-11-24T10:52:03.850Z,96076.50
2023-11-24T10:54:05.231Z,96079.06
2023-11-24T10:56:07.217Z,96074.81
2023-11-24T10:58:08.645Z,96085.03
2023-11-24T11:00:10.211Z,96076.56
2023-11-24T11:02:14.440Z,96072.13
2023-11-24T11:04:17.421Z,96063.66
2023-11-24T11:06:18.863Z,96047.34
2023-11-24T11:08:20.476Z,96054.19
2023-11-24T11:10:27.129Z,96055.00
2023-11-24T11:12:32.301Z,96042.22
2023-11-24T11:14:34.167Z,96046.38
2023-11-24T11:16:38.561Z,96034.41
2023-11-24T11:18:40.075Z,96036.97
2023-11-24T11:20:45.723Z,96043.63
2023-11-24T11:22:48.091Z,96047.84
2023-11-24T11:24:49.526Z,96037.47
2023-11-24T11:26:52.103Z,96048.53
2023-11-24T11:28:54.347Z,96051.06
2023-11-24T11:30:56.841Z,96056.19
2023-11-24T11:32:58.433Z,96040.59
2023-11-24T11:34:59.783Z,96036.22
2023-11-24T11:37:03.219Z,96041.16
2023-11-24T11:39:05.460Z,96045.28
2023-11-24T11:41:06.786Z,96048.66
2023-11-24T11:43:09.951Z,96036.00
2023-11-24T11:45:12.529Z,96025.78
2023-11-24T11:47:21.871Z,96023.22
2023-11-24T11:49:24.799Z,96032.63
2023-11-24T11:51:27.490Z,96034.44
2023-11-24T11:53:35.043Z,96027.66
2023-11-24T11:55:36.526Z,96042.00
2023-11-24T11:57:38.549Z,96037.78
2023-11-24T11:59:41.084Z,96031.06
2023-11-24T12:01:42.592Z,96031.88
2023-11-24T12:03:44.199Z,96023.47
2023-11-24T12:05:48.349Z,96025.28
2023-11-24T12:07:49.727Z,96020.06
2023-11-24T12:09:51.184Z,96025.38
2023-11-24T12:11:52.580Z,96016.16
2023-11-24T12:13:53.975Z,96008.56
2023-11-24T12:15:56.045Z,96019.66
2023-11-24T12:17:58.448Z,96011.78
2023-11-24T12:20:00.032Z,96013.41
2023-11-24T12:22:01.384Z,96010.72
2023-11-24T12:24:12.441Z,96016.63
2023-11-24T12:26:18.181Z,96001.31
2023-11-24T12:28:19.761Z,96004.72
2023-11-24T12:30:21.186Z,96003.88
2023-11-24T12:32:22.555Z,95996.28
2023-11-24T12:34:23.971Z,95984.44
2023-11-24T12:36:25.411Z,95983.63
2023-11-24T12:38:27.264Z,95995.47
2023-11-24T12:40:29.073Z,95993.00
2023-11-24T12:42:30.708Z,95978.50
2023-11-24T12:44:32.341Z,95982.72
2023-11-24T12:46:34.528Z,95982.72
2023-11-24T12:48:38.535Z,95969.13
2023-11-24T12:50:43.032Z,95963.91
2023-11-24T12:52:44.914Z,95963.09
2023-11-24T12:54:47.192Z,95967.41
2023-11-24T12:56:48.588Z,95962.28
2023-11-24T12:58:51.681Z,95949.53
2023-11-24T13:00:55.517Z,95951.16
2023-11-24T13:02:57.103Z,95943.50
2023-11-24T13:04:58.543Z,95942.66
2023-11-24T13:07:00.023Z,95936.66
2023-11-24T13:09:01.423Z,95942.66
2023-11-24T13:11:04.132Z,95941.88
2023-11-24T13:13:06.843Z,95942.59
2023-11-24T13:15:08.945Z,95783.75
2023-11-24T13:17:10.530Z,95937.41
2023-11-24T13:19:12.397Z,95931.41
2023-11-24T13:21:13.769Z,95929.75
2023-11-24T13:23:15.198Z,95921.28
2023-11-24T13:25:17.526Z,95908.59
2023-11-24T13:27:19.029Z,95911.16
2023-11-24T13:29:20.450Z,95899.09
2023-11-24T13:31:22.972Z,95901.66
2023-11-24T13:33:24.315Z,95897.38
2023-11-24T13:35:26.732Z,95894.00
2023-11-24T13:37:31.353Z,95892.38
2023-11-24T13:39:33.259Z,95889.81
2023-11-24T13:41:37.698Z,95886.34
2023-11-24T13:43:39.029Z,95891.44
2023-11-24T13:45:43.281Z,95885.44
2023-11-24T13:47:45.655Z,95896.56
2023-11-24T13:49:47.723Z,95889.72
2023-11-24T13:51:49.133Z,95901.66
2023-11-24T13:53:52.280Z,95893.09
2023-11-24T13:55:57.969Z,95899.09
2023-11-24T13:57:59.451Z,95886.34
2023-11-24T14:00:00.891Z,95897.38
2023-11-24T14:02:02.687Z,95894.81
2023-11-24T14:04:04.886Z,95897.38
2023-11-24T14:06:06.619Z,95892.28
2023-11-24T14:08:10.563Z,95895.75
2023-11-24T14:10:18.177Z,95884.63
2023-11-24T14:12:21.413Z,95894.81
2023-11-24T14:14:22.842Z,95899.09
2023-11-24T14:16:24.893Z,95889.81
2023-11-24T14:18:26.329Z,95892.38
2023-11-24T14:20:27.740Z,95891.53
2023-11-24T14:22:29.121Z,95882.22
2023-11-24T14:24:30.473Z,95881.41
2023-11-24T14:26:34.503Z,95885.78
2023-11-24T14:28:35.893Z,95878.84
2023-11-24T14:30:39.684Z,95889.16
2023-11-24T14:32:41.240Z,95896.72
2023-11-24T14:34:43.533Z,95877.22
2023-11-24T14:36:46.180Z,95873.75
2023-11-24T14:38:49.520Z,95868.63
2023-11-24T14:40:51.307Z,95891.63
2023-11-24T14:42:52.669Z,95882.34
2023-11-24T14:44:54.553Z,95874.69
2023-11-24T14:46:56.745Z,95880.59
2023-11-24T14:48:58.254Z,95882.34
2023-11-24T14:50:59.641Z,95884.88
2023-11-24T14:53:01.834Z,95886.50
2023-11-24T14:55:06.065Z,95881.41
2023-11-24T14:57:07.494Z,95882.22
2023-11-24T14:59:10.024Z,95725.19
2023-11-24T15:01:11.654Z,95884.78
2023-11-24T15:03:16.360Z,95880.59
2023-11-24T15:05:18.476Z,95879.69
2023-11-24T15:07:21.066Z,95889.00
2023-11-24T15:09:25.888Z,95879.63
2023-11-24T15:11:38.509Z,95872.78
2023-11-24T15:13:39.839Z,95885.63
2023-11-24T15:15:41.347Z,95888.09
2023-11-24T15:17:42.811Z,95894.09
2023-11-24T15:19:44.217Z,95875.34
2023-11-24T15:21:45.613Z,95884.63
2023-11-24T15:23:47.018Z,95888.00
2023-11-24T15:25:50.862Z,95883.72
2023-11-24T15:27:52.254Z,95880.44
2023-11-24T15:29:53.633Z,95881.25
2023-11-24T15:31:55.066Z,95872.69
2023-11-24T15:33:56.716Z,95876.06
2023-11-24T15:35:58.221Z,95865.03
2023-11-24T15:37:59.543Z,95871.03
2023-11-24T15:40:00.993Z,95876.22
2023-11-24T15:42:03.442Z,95871.94
2023-11-24T15:44:07.678Z,95874.56
2023-11-24T15:46:10.941Z,95871.94
2023-11-24T15:48:13.421Z,95862.63
2023-11-24T15:50:15.787Z,95866.09
2023-11-24T15:52:17.220Z,95868.63
2023-11-24T15:54:18.675Z,95870.41
2023-11-24T15:56:20.013Z,95874.53
2023-11-24T15:58:26.220Z,95869.88
2023-11-24T16:00:34.353Z,95878.03
2023-11-24T16:02:36.006Z,95863.56
2023-11-24T16:04:37.487Z,95861.03
2023-11-24T16:06:41.000Z,95862.47
2023-11-24T16:08:46.007Z,95859.41
2023-11-24T16:10:56.639Z,95855.09
2023-11-24T16:13:03.589Z,95851.91
2023-11-24T16:15:05.335Z,95850.09
2023-11-24T16:17:06.902Z,95852.41
2023-11-24T16:19:08.499Z,95852.41
2023-11-24T16:21:10.239Z,95843.78
2023-11-24T16:23:11.616Z,95835.56
2023-11-24T16:25:13.126Z,95838.38
2023-11-24T16:27:14.442Z,95691.41
2023-11-24T16:29:16.137Z,95843.88
2023-11-24T16:31:17.584Z,95832.31
2023-11-24T16:33:19.007Z,95844.63
2023-11-24T16:35:20.342Z,95837.28
2023-11-24T16:37:21.890Z,95827.44
2023-11-24T16:39:24.162Z,95825.97
2023-11-24T16:41:25.895Z,95824.47
2023-11-24T16:43:27.302Z,95821.31
2023-11-24T16:45:31.577Z,95818.75
2023-11-24T16:47:33.016Z,95817.91
2023-11-24T16:49:34.549Z,95805.88
2023-11-24T16:51:36.000Z,95802.44
2023-11-24T16:53:37.367Z,95796.34
2023-11-24T16:55:38.792Z,95799.53
2023-11-24T16:57:40.164Z,95790.69
2023-11-24T16:59:41.544Z,95782.53
2023-11-24T17:01:42.992Z,95778.06
2023-11-24T17:03:44.807Z,95763.81
2023-11-24T17:05:46.196Z,95761.25
2023-11-24T17:07:47.614Z,95760.38
2023-11-24T17:09:52.843Z,95775.94
2023-11-24T17:11:54.313Z,95771.69
2023-11-24T17:13:55.638Z,95774.25
2023-11-24T17:15:57.069Z,95762.63
2023-11-24T17:17:58.645Z,95773.56
2023-11-24T17:20:00.101Z,95765.41
2023-11-24T17:22:01.470Z,95794.38
2023-11-24T17:24:02.804Z,95779.66
2023-11-24T17:26:04.179Z,95788.31
2023-11-24T17:28:06.244Z,95783.31
2023-11-24T17:30:08.049Z,95784.97
2023-11-24T17:32:10.501Z,95785.03
2023-11-24T17:34:13.200Z,95780.63
2023-11-24T17:36:15.299Z,95789.06
2023-11-24T17:38:19.671Z,95786.59
2023-11-24T17:40:23.450Z,95784.72
2023-11-24T17:42:25.170Z,95787.19
2023-11-24T17:44:26.538Z,95770.50
2023-11-24T17:46:28.039Z,95779.50
2023-11-24T17:48:29.404Z,95787.16
2023-11-24T17:50:30.797Z,95787.75
2023-11-24T17:52:33.629Z,95784.34
2023-11-24T17:54:35.576Z,95781.13
2023-11-24T17:56:36.948Z,95772.81
2023-11-24T17:58:38.411Z,95781.13
2023-11-24T18:00:41.325Z,95781.56
2023-11-24T18:02:43.062Z,95794.25
2023-11-24T18:04:45.004Z,95796.69
2023-11-24T18:06:46.351Z,95791.78
2023-11-24T18:08:49.606Z,95804.59
2023-11-24T18:10:53.745Z,95798.44
2023-11-24T18:12:55.794Z,95806.03
2023-11-24T18:14:57.154Z,95803.72
2023-11-24T18:16:58.524Z,95796.78
2023-11-24T18:19:00.041Z,95803.38
2023-11-24T18:21:02.069Z,95811.63
2023-11-24T18:23:04.558Z,95789.81
2023-11-24T18:25:09.335Z,95793.78
2023-11-24T18:27:10.857Z,95790.19
2023-11-24T18:29:15.053Z,95791.03
2023-11-24T18:31:16.577Z,95788.81
2023-11-24T18:33:18.006Z,95781.47
2023-11-24T18:35:22.514Z,95789.25
2023-11-24T18:37:26.877Z,95781.81
2023-11-24T18:39:28.593Z,95777.34
2023-11-24T18:41:30.029Z,95783.75
2023-11-24T18:43:37.221Z,95773.13
2023-11-24T18:45:42.043Z,95773.50
2023-11-24T18:47:43.495Z,95748.63
2023-11-24T18:49:44.937Z,95757.53
2023-11-24T18:51:46.268Z,95758.28
2023-11-24T18:53:47.605Z,95759.91
2023-11-24T18:55:48.927Z,95762.97
2023-11-24T18:57:50.878Z,95763.34
2023-11-24T18:59:52.226Z,95758.91
2023-11-24T19:01:53.642Z,95757.72
2023-11-24T19:03:55.076Z,95752.72
2023-11-24T19:05:56.453Z,95748.13
2023-11-24T19:07:57.824Z,95774.94
2023-11-24T19:10:00.141Z,95742.09
2023-11-24T19:12:03.044Z,95747.00
2023-11-24T19:14:04.498Z,95743.50
2023-11-24T19:16:06.081Z,95761.22
2023-11-24T19:18:11.403Z,95759.78
2023-11-24T19:20:12.764Z,95760.59
2023-11-24T19:22:14.117Z,95760.78
2023-11-24T19:24:15.532Z,95758.94
2023-11-24T19:26:18.049Z,95762.00
2023-11-24T19:28:20.734Z,95759.44
2023-11-24T19:30:22.135Z,95759.44
2023-11-24T19:32:23.528Z,95771.69
2023-11-24T19:34:25.013Z,95753.25
2023-11-24T19:36:26.539Z,95764.56
2023-11-24T19:38:27.897Z,95760.38
2023-11-24T19:40:29.994Z,95773.53
2023-11-24T19:42:31.350Z,95771.91
2023-11-24T19:44:32.671Z,95769.84
2023-11-24T19:46:34.237Z,95780.00
2023-11-24T19:48:35.651Z,95770.94
2023-11-24T19:50:37.151Z,95772.41
2023-11-24T19:52:39.642Z,95764.16
2023-11-24T19:54:41.004Z,95753.78
2023-11-24T19:56:42.340Z,95752.38
2023-11-24T19:58:44.186Z,95743.78
2023-11-24T20:00:45.592Z,95747.78
2023-11-24T20:02:48.321Z,95749.38
2023-11-24T20:04:50.061Z,95741.13
2023-11-24T20:06:51.645Z,95733.44
2023-11-24T20:08:55.760Z,95736.41
2023-11-24T20:10:57.284Z,95728.97
2023-11-24T20:12:58.686Z,95734.28
2023-11-24T20:15:00.059Z,95737.25
2023-11-24T20:17:01.494Z,95735.72
2023-11-24T20:19:02.921Z,95734.91
2023-11-24T20:21:04.258Z,95744.38
2023-11-24T20:23:05.623Z,95731.59
2023-11-24T20:25:08.333Z,95743.00
2023-11-24T20:27:09.687Z,95731.72
2023-11-24T20:29:11.032Z,95734.00
2023-11-24T20:31:13.671Z,95727.47
2023-11-24T20:33:15.089Z,95723.44
2023-11-24T20:35:16.519Z,95718.66
2023-11-24T20:37:17.961Z,95720.59
2023-11-24T20:39:22.356Z,95705.63
2023-11-24T20:41:24.199Z,95711.97
2023-11-24T20:43:25.638Z,95711.97
2023-11-24T20:45:27.232Z,95715.66
2023-11-24T20:47:30.936Z,95702.53
2023-11-24T20:49:32.484Z,95701.72
2023-11-24T20:51:33.945Z,95702.94
2023-11-24T20:53:36.148Z,95701.59
2023-11-24T20:55:37.587Z,95703.88
2023-11-24T20:57:38.956Z,95699.63
2023-11-24T20:59:40.324Z,95689.53
2023-11-24T21:01:42.017Z,95692.59
2023-11-24T21:03:43.615Z,95696.81
2023-11-24T21:05:44.980Z,95695.34
2023-11-24T21:07:46.338Z,95701.22
2023-11-24T21:09:49.202Z,95702.31
2023-11-24T21:11:50.531Z,95693.75
2023-11-24T21:13:51.862Z,95705.78
2023-11-24T21:15:53.190Z,95692.19
2023-11-24T21:17:54.844Z,95695.75
2023-11-24T21:19:56.309Z,95687.06
2023-11-24T21:21:57.666Z,95696.56
2023-11-24T21:23:59.276Z,95697.50
2023-11-24T21:26:04.635Z,95704.44
2023-11-24T21:28:05.990Z,95695.94
2023-11-24T21:30:07.655Z,95697.53
2023-11-24T21:32:09.492Z,95714.19
2023-11-24T21:34:11.120Z,95707.94
2023-11-24T21:36:12.499Z,95700.81
2023-11-24T21:38:18.671Z,95709.59
2023-11-24T21:40:20.135Z,95697.63
2023-11-24T21:42:21.583Z,95687.59
2023-11-24T21:44:22.912Z,95692.50
2023-11-24T21:46:24.325Z,95696.59
2023-11-24T21:48:28.623Z,95704.09
2023-11-24T21:50:30.036Z,95693.41
2023-11-24T21:52:31.845Z,95693.66
2023-11-24T21:54:33.219Z,95693.94
2023-11-24T21:56:34.710Z,95694.03
2023-11-24T21:58:36.255Z,95694.34
2023-11-24T22:00:38.310Z,95695.06
2023-11-24T22:02:41.069Z,95686.88
2023-11-24T22:04:42.934Z,95690.56
2023-11-24T22:06:44.655Z,95693.31
2023-11-24T22:08:46.004Z,95691.16
2023-11-24T22:10:47.413Z,95689.63
2023-11-24T22:12:49.200Z,95682.38
2023-11-24T22:14:50.617Z,95687.69
2023-11-24T22:16:52.116Z,95680.13
2023-11-24T22:18:53.514Z,95691.34
2023-11-24T22:20:54.933Z,95694.34
2023-11-24T22:22:56.257Z,95693.66
2023-11-24T22:24:58.040Z,95687.72
2023-11-24T22:27:02.306Z,95699.06
2023-11-24T22:29:04.168Z,95691.41
2023-11-24T22:31:05.631Z,95691.69
2023-11-24T22:33:07.169Z,95683.13
2023-11-24T22:35:08.525Z,95703.13
2023-11-24T22:37:11.653Z,95694.44
2023-11-24T22:39:12.981Z,95693.72
2023-11-24T22:41:15.037Z,95700.69
2023-11-24T22:43:16.412Z,95686.94
2023-11-24T22:45:17.787Z,95695.66
2023-11-24T22:47:19.477Z,95704.16
2023-11-24T22:49:21.042Z,95701.59
2023-11-24T22:51:22.674Z,95699.22
2023-11-24T22:53:24.100Z,95697.19
2023-11-24T22:55:25.539Z,95703.75
2023-11-24T22:57:28.194Z,95697.63
2023-11-24T22:59:29.526Z,95707.22
2023-11-24T23:01:31.010Z,95704.28
2023-11-24T23:03:32.430Z,95698.84
2023-11-24T23:05:33.846Z,95700.19
2023-11-24T23:07:36.291Z,95703.25
2023-11-24T23:09:39.609Z,95705.63
2023-11-24T23:11:41.746Z,95708.09
2023-11-24T23:13:43.244Z,95712.28
2023-11-24T23:15:44.944Z,95710.75
2023-11-24T23:17:46.351Z,95710.47
2023-11-24T23:19:47.785Z,95709.78
2023-11-24T23:21:49.156Z,95715.94
2023-11-24T23:23:51.119Z,95712.16
2023-11-24T23:25:52.547Z,95718.81
2023-11-24T23:27:53.950Z,95710.22
2023-11-24T23:29:55.378Z,95704.69
2023-11-24T23:31:56.843Z,95711.56
2023-11-24T23:33:58.291Z,95715.66
2023-11-24T23:35:59.940Z,95714.84
2023-11-24T23:38:01.344Z,95707.03
2023-11-24T23:40:07.008Z,95715.53
2023-11-24T23:42:08.432Z,95710.22
2023-11-24T23:44:09.806Z,95709.59
2023-11-24T23:46:11.529Z,95712.53
2023-11-24T23:48:13.029Z,95703.50
2023-11-24T23:50:15.776Z,95721.59
2023-11-24T23:52:17.146Z,95716.91